sensor_id;sensor_type;location;lat;lon;timestamp;P1;durP1;ratioP1;P2;durP2;ratioP2
67503;SDS011;54351;49.108;1.502;2022-08-21T00:00:29;35.08;;;32.95;;
67503;SDS011;54351;49.108;1.502;2022-08-21T00:02:58;30.17;;;27.95;;
67503;SDS011;54351;49.108;1.502;2022-08-21T00:05:26;39.20;;;36.33;;
67503;SDS011;54351;49.108;1.502;2022-08-21T00:07:53;38.60;;;36.20;;
67503;SDS011;54351;49.108;1.502;2022-08-21T00:10:19;41.03;;;38.13;;
67503;SDS011;54351;49.108;1.502;2022-08-21T00:12:45;35.20;;;33.08;;
67503;SDS011;54351;49.108;1.502;2022-08-21T00:15:13;42.63;;;40.03;;
67503;SDS011;54351;49.108;1.502;2022-08-21T00:17:39;38.20;;;35.55;;
67503;SDS011;54351;49.108;1.502;2022-08-21T00:20:07;32.28;;;30.13;;
67503;SDS011;54351;49.108;1.502;2022-08-21T00:22:34;41.75;;;38.95;;
67503;SDS011;54351;49.108;1.502;2022-08-21T00:25:00;42.22;;;39.53;;
67503;SDS011;54351;49.108;1.502;2022-08-21T00:27:27;40.58;;;37.92;;
67503;SDS011;54351;49.108;1.502;2022-08-21T00:29:53;41.72;;;39.17;;
67503;SDS011;54351;49.108;1.502;2022-08-21T00:32:21;39.90;;;37.30;;
67503;SDS011;54351;49.108;1.502;2022-08-21T00:34:48;35.88;;;33.63;;
67503;SDS011;54351;49.108;1.502;2022-08-21T00:37:14;33.70;;;31.40;;
67503;SDS011;54351;49.108;1.502;2022-08-21T00:39:40;44.92;;;41.97;;
67503;SDS011;54351;49.108;1.502;2022-08-21T00:42:06;37.83;;;35.47;;
67503;SDS011;54351;49.108;1.502;2022-08-21T00:44:32;38.95;;;36.60;;
67503;SDS011;54351;49.108;1.502;2022-08-21T00:46:58;43.03;;;40.42;;
67503;SDS011;54351;49.108;1.502;2022-08-21T00:49:24;34.13;;;31.35;;
67503;SDS011;54351;49.108;1.502;2022-08-21T00:51:52;43.65;;;40.15;;
67503;SDS011;54351;49.108;1.502;2022-08-21T00:54:20;38.63;;;36.28;;
67503;SDS011;54351;49.108;1.502;2022-08-21T00:56:48;37.53;;;35.03;;
67503;SDS011;54351;49.108;1.502;2022-08-21T00:59:16;46.00;;;42.65;;
67503;SDS011;54351;49.108;1.502;2022-08-21T01:01:42;37.72;;;35.42;;
67503;SDS011;54351;49.108;1.502;2022-08-21T01:04:08;43.58;;;40.70;;
67503;SDS011;54351;49.108;1.502;2022-08-21T01:06:35;40.05;;;37.50;;
67503;SDS011;54351;49.108;1.502;2022-08-21T01:09:01;49.20;;;46.17;;
67503;SDS011;54351;49.108;1.502;2022-08-21T01:11:27;41.70;;;39.03;;
67503;SDS011;54351;49.108;1.502;2022-08-21T01:13:53;38.08;;;35.30;;
67503;SDS011;54351;49.108;1.502;2022-08-21T01:16:20;32.72;;;30.70;;
67503;SDS011;54351;49.108;1.502;2022-08-21T01:18:47;37.13;;;34.67;;
67503;SDS011;54351;49.108;1.502;2022-08-21T01:21:24;37.58;;;35.05;;
67503;SDS011;54351;49.108;1.502;2022-08-21T01:23:51;32.78;;;30.63;;
67503;SDS011;54351;49.108;1.502;2022-08-21T01:26:19;34.22;;;32.13;;
67503;SDS011;54351;49.108;1.502;2022-08-21T01:28:49;40.45;;;37.58;;
67503;SDS011;54351;49.108;1.502;2022-08-21T01:31:17;38.55;;;35.65;;
67503;SDS011;54351;49.108;1.502;2022-08-21T01:33:45;34.88;;;32.38;;
67503;SDS011;54351;49.108;1.502;2022-08-21T01:36:11;34.75;;;32.45;;
67503;SDS011;54351;49.108;1.502;2022-08-21T01:38:37;39.67;;;37.05;;
67503;SDS011;54351;49.108;1.502;2022-08-21T01:41:03;33.97;;;31.48;;
67503;SDS011;54351;49.108;1.502;2022-08-21T01:43:29;42.85;;;39.92;;
67503;SDS011;54351;49.108;1.502;2022-08-21T01:45:55;34.42;;;32.13;;
67503;SDS011;54351;49.108;1.502;2022-08-21T01:48:21;36.75;;;33.60;;
67503;SDS011;54351;49.108;1.502;2022-08-21T01:50:47;53.53;;;50.25;;
67503;SDS011;54351;49.108;1.502;2022-08-21T01:53:13;43.03;;;40.25;;
67503;SDS011;54351;49.108;1.502;2022-08-21T01:55:40;48.72;;;45.55;;
67503;SDS011;54351;49.108;1.502;2022-08-21T01:58:06;54.28;;;50.55;;
67503;SDS011;54351;49.108;1.502;2022-08-21T02:00:32;47.13;;;44.38;;
67503;SDS011;54351;49.108;1.502;2022-08-21T02:02:59;54.03;;;50.80;;
67503;SDS011;54351;49.108;1.502;2022-08-21T02:05:25;56.22;;;52.75;;
67503;SDS011;54351;49.108;1.502;2022-08-21T02:07:52;68.75;;;64.63;;
67503;SDS011;54351;49.108;1.502;2022-08-21T02:10:20;60.55;;;56.90;;
67503;SDS011;54351;49.108;1.502;2022-08-21T02:12:46;58.20;;;54.78;;
67503;SDS011;54351;49.108;1.502;2022-08-21T02:15:13;58.97;;;55.15;;
67503;SDS011;54351;49.108;1.502;2022-08-21T02:17:44;61.80;;;58.10;;
67503;SDS011;54351;49.108;1.502;2022-08-21T02:22:38;77.90;;;73.57;;
67503;SDS011;54351;49.108;1.502;2022-08-21T02:25:04;78.65;;;74.15;;
67503;SDS011;54351;49.108;1.502;2022-08-21T02:27:36;76.28;;;71.88;;
67503;SDS011;54351;49.108;1.502;2022-08-21T02:30:03;76.82;;;72.25;;
67503;SDS011;54351;49.108;1.502;2022-08-21T02:32:29;66.05;;;62.10;;
67503;SDS011;54351;49.108;1.502;2022-08-21T02:34:55;82.00;;;77.22;;
67503;SDS011;54351;49.108;1.502;2022-08-21T02:37:22;78.90;;;74.25;;
67503;SDS011;54351;49.108;1.502;2022-08-21T02:39:48;79.38;;;74.38;;
67503;SDS011;54351;49.108;1.502;2022-08-21T02:42:15;86.20;;;81.13;;
67503;SDS011;54351;49.108;1.502;2022-08-21T02:44:41;87.82;;;82.90;;
67503;SDS011;54351;49.108;1.502;2022-08-21T02:47:07;84.45;;;79.57;;
67503;SDS011;54351;49.108;1.502;2022-08-21T02:49:33;91.15;;;86.03;;
67503;SDS011;54351;49.108;1.502;2022-08-21T02:51:59;84.15;;;79.15;;
67503;SDS011;54351;49.108;1.502;2022-08-21T02:54:25;87.43;;;82.55;;
67503;SDS011;54351;49.108;1.502;2022-08-21T02:56:51;80.78;;;76.03;;
67503;SDS011;54351;49.108;1.502;2022-08-21T02:59:17;78.45;;;73.93;;
67503;SDS011;54351;49.108;1.502;2022-08-21T03:01:43;101.35;;;95.35;;
67503;SDS011;54351;49.108;1.502;2022-08-21T03:04:09;78.18;;;73.70;;
67503;SDS011;54351;49.108;1.502;2022-08-21T03:06:36;137.73;;;129.70;;
67503;SDS011;54351;49.108;1.502;2022-08-21T03:09:02;135.02;;;127.00;;
67503;SDS011;54351;49.108;1.502;2022-08-21T03:11:28;81.50;;;76.85;;
67503;SDS011;54351;49.108;1.502;2022-08-21T03:13:54;92.43;;;87.03;;
67503;SDS011;54351;49.108;1.502;2022-08-21T03:16:20;96.00;;;90.57;;
67503;SDS011;54351;49.108;1.502;2022-08-21T03:18:46;75.47;;;71.10;;
67503;SDS011;54351;49.108;1.502;2022-08-21T03:21:13;108.78;;;102.53;;
67503;SDS011;54351;49.108;1.502;2022-08-21T03:23:39;127.35;;;120.10;;
67503;SDS011;54351;49.108;1.502;2022-08-21T03:26:06;72.32;;;68.20;;
67503;SDS011;54351;49.108;1.502;2022-08-21T03:28:33;93.93;;;88.55;;
67503;SDS011;54351;49.108;1.502;2022-08-21T03:30:59;81.80;;;77.10;;
67503;SDS011;54351;49.108;1.502;2022-08-21T03:33:25;81.28;;;76.43;;
67503;SDS011;54351;49.108;1.502;2022-08-21T03:35:55;97.55;;;91.75;;
67503;SDS011;54351;49.108;1.502;2022-08-21T03:38:23;85.18;;;79.82;;
67503;SDS011;54351;49.108;1.502;2022-08-21T03:40:49;131.48;;;124.18;;
67503;SDS011;54351;49.108;1.502;2022-08-21T03:43:15;74.30;;;70.00;;
67503;SDS011;54351;49.108;1.502;2022-08-21T03:45:41;58.85;;;55.25;;
67503;SDS011;54351;49.108;1.502;2022-08-21T03:48:08;62.13;;;58.42;;
67503;SDS011;54351;49.108;1.502;2022-08-21T03:50:36;137.55;;;130.02;;
67503;SDS011;54351;49.108;1.502;2022-08-21T03:53:03;121.15;;;114.35;;
67503;SDS011;54351;49.108;1.502;2022-08-21T03:55:29;142.90;;;135.05;;
67503;SDS011;54351;49.108;1.502;2022-08-21T03:57:55;90.57;;;85.30;;
67503;SDS011;54351;49.108;1.502;2022-08-21T04:00:22;99.22;;;93.30;;
67503;SDS011;54351;49.108;1.502;2022-08-21T04:02:48;68.22;;;64.07;;
67503;SDS011;54351;49.108;1.502;2022-08-21T04:05:14;50.15;;;47.05;;
67503;SDS011;54351;49.108;1.502;2022-08-21T04:07:59;64.00;;;60.33;;
67503;SDS011;54351;49.108;1.502;2022-08-21T04:10:26;74.28;;;69.82;;
67503;SDS011;54351;49.108;1.502;2022-08-21T04:12:52;66.32;;;62.63;;
67503;SDS011;54351;49.108;1.502;2022-08-21T04:15:19;58.30;;;54.92;;
67503;SDS011;54351;49.108;1.502;2022-08-21T04:17:46;64.45;;;60.65;;
67503;SDS011;54351;49.108;1.502;2022-08-21T04:20:13;60.10;;;56.22;;
67503;SDS011;54351;49.108;1.502;2022-08-21T04:22:39;66.10;;;62.08;;
67503;SDS011;54351;49.108;1.502;2022-08-21T04:25:06;65.18;;;61.28;;
67503;SDS011;54351;49.108;1.502;2022-08-21T04:27:32;75.20;;;71.03;;
67503;SDS011;54351;49.108;1.502;2022-08-21T04:29:58;78.97;;;74.32;;
67503;SDS011;54351;49.108;1.502;2022-08-21T04:32:26;81.72;;;77.00;;
67503;SDS011;54351;49.108;1.502;2022-08-21T04:34:59;127.18;;;119.80;;
67503;SDS011;54351;49.108;1.502;2022-08-21T04:37:25;114.38;;;107.65;;
67503;SDS011;54351;49.108;1.502;2022-08-21T04:39:52;98.78;;;93.07;;
67503;SDS011;54351;49.108;1.502;2022-08-21T04:42:18;120.20;;;113.30;;
67503;SDS011;54351;49.108;1.502;2022-08-21T04:44:44;111.47;;;104.93;;
67503;SDS011;54351;49.108;1.502;2022-08-21T04:47:10;86.68;;;81.40;;
67503;SDS011;54351;49.108;1.502;2022-08-21T04:49:36;64.60;;;60.60;;
67503;SDS011;54351;49.108;1.502;2022-08-21T04:52:02;86.00;;;80.93;;
67503;SDS011;54351;49.108;1.502;2022-08-21T04:54:28;92.10;;;86.97;;
67503;SDS011;54351;49.108;1.502;2022-08-21T04:56:56;114.43;;;107.97;;
67503;SDS011;54351;49.108;1.502;2022-08-21T04:59:26;96.95;;;91.25;;
67503;SDS011;54351;49.108;1.502;2022-08-21T05:01:53;83.78;;;78.95;;
67503;SDS011;54351;49.108;1.502;2022-08-21T05:04:22;98.85;;;92.97;;
67503;SDS011;54351;49.108;1.502;2022-08-21T05:06:49;117.70;;;110.90;;
67503;SDS011;54351;49.108;1.502;2022-08-21T05:09:17;158.05;;;148.73;;
67503;SDS011;54351;49.108;1.502;2022-08-21T05:11:44;143.18;;;134.48;;
67503;SDS011;54351;49.108;1.502;2022-08-21T05:14:13;152.77;;;144.05;;
67503;SDS011;54351;49.108;1.502;2022-08-21T05:16:39;156.38;;;147.45;;
67503;SDS011;54351;49.108;1.502;2022-08-21T05:19:08;127.75;;;120.40;;
67503;SDS011;54351;49.108;1.502;2022-08-21T05:21:35;148.73;;;140.52;;
67503;SDS011;54351;49.108;1.502;2022-08-21T05:24:01;128.80;;;121.30;;
67503;SDS011;54351;49.108;1.502;2022-08-21T05:26:27;133.32;;;125.40;;
67503;SDS011;54351;49.108;1.502;2022-08-21T05:28:54;140.30;;;132.38;;
67503;SDS011;54351;49.108;1.502;2022-08-21T05:31:20;124.85;;;117.45;;
67503;SDS011;54351;49.108;1.502;2022-08-21T05:33:47;108.68;;;102.35;;
67503;SDS011;54351;49.108;1.502;2022-08-21T05:36:14;102.35;;;96.20;;
67503;SDS011;54351;49.108;1.502;2022-08-21T05:38:40;104.43;;;98.28;;
67503;SDS011;54351;49.108;1.502;2022-08-21T05:41:06;89.63;;;84.55;;
67503;SDS011;54351;49.108;1.502;2022-08-21T05:43:32;121.97;;;115.15;;
67503;SDS011;54351;49.108;1.502;2022-08-21T05:46:01;155.27;;;146.45;;
67503;SDS011;54351;49.108;1.502;2022-08-21T05:48:27;186.30;;;175.77;;
67503;SDS011;54351;49.108;1.502;2022-08-21T05:50:53;200.70;;;189.23;;
67503;SDS011;54351;49.108;1.502;2022-08-21T05:53:20;136.40;;;128.63;;
67503;SDS011;54351;49.108;1.502;2022-08-21T05:55:48;150.73;;;142.40;;
67503;SDS011;54351;49.108;1.502;2022-08-21T05:58:15;157.02;;;148.30;;
67503;SDS011;54351;49.108;1.502;2022-08-21T06:00:42;147.88;;;139.35;;
67503;SDS011;54351;49.108;1.502;2022-08-21T06:03:15;89.13;;;83.95;;
67503;SDS011;54351;49.108;1.502;2022-08-21T06:05:42;46.97;;;43.83;;
67503;SDS011;54351;49.108;1.502;2022-08-21T06:08:08;80.35;;;75.03;;
67503;SDS011;54351;49.108;1.502;2022-08-21T06:10:35;73.00;;;68.30;;
67503;SDS011;54351;49.108;1.502;2022-08-21T06:13:01;36.05;;;33.60;;
67503;SDS011;54351;49.108;1.502;2022-08-21T06:15:27;29.75;;;27.70;;
67503;SDS011;54351;49.108;1.502;2022-08-21T06:17:53;25.67;;;23.60;;
67503;SDS011;54351;49.108;1.502;2022-08-21T06:20:20;49.58;;;46.45;;
67503;SDS011;54351;49.108;1.502;2022-08-21T06:22:46;10.73;;;8.60;;
67503;SDS011;54351;49.108;1.502;2022-08-21T06:25:12;14.25;;;13.13;;
67503;SDS011;54351;49.108;1.502;2022-08-21T06:27:38;13.15;;;11.85;;
67503;SDS011;54351;49.108;1.502;2022-08-21T06:30:05;12.75;;;11.40;;
67503;SDS011;54351;49.108;1.502;2022-08-21T06:32:32;35.15;;;32.33;;
67503;SDS011;54351;49.108;1.502;2022-08-21T06:34:58;26.75;;;24.73;;
67503;SDS011;54351;49.108;1.502;2022-08-21T06:37:24;25.45;;;23.30;;
67503;SDS011;54351;49.108;1.502;2022-08-21T06:39:50;31.70;;;29.63;;
67503;SDS011;54351;49.108;1.502;2022-08-21T06:42:17;19.25;;;17.52;;
67503;SDS011;54351;49.108;1.502;2022-08-21T06:44:44;14.70;;;13.50;;
67503;SDS011;54351;49.108;1.502;2022-08-21T06:47:10;21.13;;;19.52;;
67503;SDS011;54351;49.108;1.502;2022-08-21T06:49:36;19.48;;;17.67;;
67503;SDS011;54351;49.108;1.502;2022-08-21T06:52:02;20.52;;;15.13;;
67503;SDS011;54351;49.108;1.502;2022-08-21T06:54:29;16.08;;;14.48;;
67503;SDS011;54351;49.108;1.502;2022-08-21T06:56:58;18.33;;;16.67;;
67503;SDS011;54351;49.108;1.502;2022-08-21T06:59:24;17.30;;;12.63;;
67503;SDS011;54351;49.108;1.502;2022-08-21T07:01:52;12.02;;;8.05;;
67503;SDS011;54351;49.108;1.502;2022-08-21T07:04:18;14.13;;;9.20;;
67503;SDS011;54351;49.108;1.502;2022-08-21T07:06:45;12.38;;;10.68;;
67503;SDS011;54351;49.108;1.502;2022-08-21T07:09:11;16.33;;;13.60;;
67503;SDS011;54351;49.108;1.502;2022-08-21T07:11:37;18.05;;;11.70;;
67503;SDS011;54351;49.108;1.502;2022-08-21T07:14:03;13.40;;;12.05;;
67503;SDS011;54351;49.108;1.502;2022-08-21T07:16:32;13.75;;;10.00;;
67503;SDS011;54351;49.108;1.502;2022-08-21T07:18:58;11.93;;;8.45;;
67503;SDS011;54351;49.108;1.502;2022-08-21T07:21:24;13.45;;;10.68;;
67503;SDS011;54351;49.108;1.502;2022-08-21T07:23:53;16.27;;;9.90;;
67503;SDS011;54351;49.108;1.502;2022-08-21T07:26:20;11.55;;;9.63;;
67503;SDS011;54351;49.108;1.502;2022-08-21T07:28:47;12.30;;;7.97;;
67503;SDS011;54351;49.108;1.502;2022-08-21T07:31:27;13.32;;;7.32;;
67503;SDS011;54351;49.108;1.502;2022-08-21T07:33:57;13.70;;;8.65;;
67503;SDS011;54351;49.108;1.502;2022-08-21T07:36:23;11.63;;;8.68;;
67503;SDS011;54351;49.108;1.502;2022-08-21T07:38:52;12.48;;;8.45;;
67503;SDS011;54351;49.108;1.502;2022-08-21T07:41:29;10.75;;;8.40;;
67503;SDS011;54351;49.108;1.502;2022-08-21T07:43:57;11.73;;;9.23;;
67503;SDS011;54351;49.108;1.502;2022-08-21T07:46:23;13.93;;;10.18;;
67503;SDS011;54351;49.108;1.502;2022-08-21T07:48:50;18.55;;;16.75;;
67503;SDS011;54351;49.108;1.502;2022-08-21T07:51:16;21.98;;;19.40;;
67503;SDS011;54351;49.108;1.502;2022-08-21T07:53:47;25.70;;;23.70;;
67503;SDS011;54351;49.108;1.502;2022-08-21T07:56:36;22.70;;;21.00;;
67503;SDS011;54351;49.108;1.502;2022-08-21T07:59:04;33.50;;;31.13;;
67503;SDS011;54351;49.108;1.502;2022-08-21T08:01:30;61.17;;;57.63;;
67503;SDS011;54351;49.108;1.502;2022-08-21T08:03:56;49.25;;;46.17;;
67503;SDS011;54351;49.108;1.502;2022-08-21T08:06:22;41.08;;;38.28;;
67503;SDS011;54351;49.108;1.502;2022-08-21T08:08:49;40.63;;;37.63;;
67503;SDS011;54351;49.108;1.502;2022-08-21T08:11:15;48.78;;;45.65;;
67503;SDS011;54351;49.108;1.502;2022-08-21T08:13:43;49.30;;;46.20;;
67503;SDS011;54351;49.108;1.502;2022-08-21T08:16:12;47.03;;;43.83;;
67503;SDS011;54351;49.108;1.502;2022-08-21T08:18:40;48.78;;;45.65;;
67503;SDS011;54351;49.108;1.502;2022-08-21T08:21:18;44.78;;;41.88;;
67503;SDS011;54351;49.108;1.502;2022-08-21T08:24:00;39.30;;;36.67;;
67503;SDS011;54351;49.108;1.502;2022-08-21T08:26:53;34.38;;;31.88;;
67503;SDS011;54351;49.108;1.502;2022-08-21T08:29:21;46.17;;;43.33;;
67503;SDS011;54351;49.108;1.502;2022-08-21T08:31:47;48.08;;;44.78;;
67503;SDS011;54351;49.108;1.502;2022-08-21T08:34:19;52.88;;;49.58;;
67503;SDS011;54351;49.108;1.502;2022-08-21T08:36:47;54.90;;;51.42;;
67503;SDS011;54351;49.108;1.502;2022-08-21T08:39:14;62.67;;;58.28;;
67503;SDS011;54351;49.108;1.502;2022-08-21T08:41:40;59.22;;;55.47;;
67503;SDS011;54351;49.108;1.502;2022-08-21T08:44:07;54.10;;;50.88;;
67503;SDS011;54351;49.108;1.502;2022-08-21T08:46:35;62.33;;;58.58;;
67503;SDS011;54351;49.108;1.502;2022-08-21T08:49:06;66.55;;;62.72;;
67503;SDS011;54351;49.108;1.502;2022-08-21T08:54:03;66.47;;;62.15;;
67503;SDS011;54351;49.108;1.502;2022-08-21T08:56:31;56.72;;;52.97;;
67503;SDS011;54351;49.108;1.502;2022-08-21T08:59:02;44.72;;;41.53;;
67503;SDS011;54351;49.108;1.502;2022-08-21T09:01:30;45.25;;;42.05;;
67503;SDS011;54351;49.108;1.502;2022-08-21T09:03:56;45.90;;;43.13;;
67503;SDS011;54351;49.108;1.502;2022-08-21T09:06:28;41.40;;;38.55;;
67503;SDS011;54351;49.108;1.502;2022-08-21T09:09:22;37.72;;;35.05;;
67503;SDS011;54351;49.108;1.502;2022-08-21T09:12:00;34.22;;;31.58;;
67503;SDS011;54351;49.108;1.502;2022-08-21T09:17:33;37.10;;;34.67;;
67503;SDS011;54351;49.108;1.502;2022-08-21T09:20:11;43.85;;;40.78;;
67503;SDS011;54351;49.108;1.502;2022-08-21T09:22:57;26.42;;;24.65;;
67503;SDS011;54351;49.108;1.502;2022-08-21T09:25:27;24.67;;;22.77;;
67503;SDS011;54351;49.108;1.502;2022-08-21T09:27:59;26.13;;;24.40;;
67503;SDS011;54351;49.108;1.502;2022-08-21T09:30:37;28.27;;;26.17;;
67503;SDS011;54351;49.108;1.502;2022-08-21T09:33:06;38.05;;;35.22;;
67503;SDS011;54351;49.108;1.502;2022-08-21T09:35:33;41.85;;;38.92;;
67503;SDS011;54351;49.108;1.502;2022-08-21T09:38:01;28.13;;;26.13;;
67503;SDS011;54351;49.108;1.502;2022-08-21T09:40:42;23.60;;;21.67;;
67503;SDS011;54351;49.108;1.502;2022-08-21T09:43:58;28.73;;;26.38;;
67503;SDS011;54351;49.108;1.502;2022-08-21T09:46:49;30.95;;;28.85;;
67503;SDS011;54351;49.108;1.502;2022-08-21T09:54:44;30.70;;;28.50;;
67503;SDS011;54351;49.108;1.502;2022-08-21T10:00:06;33.00;;;30.88;;
67503;SDS011;54351;49.108;1.502;2022-08-21T10:02:35;36.13;;;33.83;;
67503;SDS011;54351;49.108;1.502;2022-08-21T10:05:24;31.98;;;29.70;;
67503;SDS011;54351;49.108;1.502;2022-08-21T10:07:48;29.75;;;27.77;;
67503;SDS011;54351;49.108;1.502;2022-08-21T10:10:16;25.25;;;23.35;;
67503;SDS011;54351;49.108;1.502;2022-08-21T10:15:13;19.83;;;18.25;;
67503;SDS011;54351;49.108;1.502;2022-08-21T10:47:08;12.52;;;7.70;;
67503;SDS011;54351;49.108;1.502;2022-08-21T10:52:16;8.88;;;6.65;;
67503;SDS011;54351;49.108;1.502;2022-08-21T10:54:56;16.17;;;13.93;;
67503;SDS011;54351;49.108;1.502;2022-08-21T11:00:15;8.98;;;8.05;;
67503;SDS011;54351;49.108;1.502;2022-08-21T11:05:12;14.07;;;11.65;;
67503;SDS011;54351;49.108;1.502;2022-08-21T11:10:17;17.88;;;16.52;;
67503;SDS011;54351;49.108;1.502;2022-08-21T11:12:46;23.45;;;21.73;;
67503;SDS011;54351;49.108;1.502;2022-08-21T11:17:47;23.10;;;21.40;;
67503;SDS011;54351;49.108;1.502;2022-08-21T11:20:17;23.77;;;22.05;;
67503;SDS011;54351;49.108;1.502;2022-08-21T11:22:53;24.33;;;22.35;;
67503;SDS011;54351;49.108;1.502;2022-08-21T11:25:21;24.42;;;22.73;;
67503;SDS011;54351;49.108;1.502;2022-08-21T11:27:50;24.25;;;22.65;;
67503;SDS011;54351;49.108;1.502;2022-08-21T11:30:18;21.77;;;19.77;;
67503;SDS011;54351;49.108;1.502;2022-08-21T11:45:43;22.00;;;20.50;;
67503;SDS011;54351;49.108;1.502;2022-08-21T11:50:43;22.05;;;20.63;;
67503;SDS011;54351;49.108;1.502;2022-08-21T11:53:25;21.58;;;20.17;;
67503;SDS011;54351;49.108;1.502;2022-08-21T11:55:54;20.92;;;19.00;;
67503;SDS011;54351;49.108;1.502;2022-08-21T11:58:32;21.48;;;19.85;;
67503;SDS011;54351;49.108;1.502;2022-08-21T12:01:03;21.05;;;19.58;;
67503;SDS011;54351;49.108;1.502;2022-08-21T12:03:32;18.77;;;17.35;;
67503;SDS011;54351;49.108;1.502;2022-08-21T12:06:00;16.90;;;15.25;;
67503;SDS011;54351;49.108;1.502;2022-08-21T12:08:30;19.02;;;17.33;;
67503;SDS011;54351;49.108;1.502;2022-08-21T12:11:03;15.50;;;14.18;;
67503;SDS011;54351;49.108;1.502;2022-08-21T12:13:30;15.57;;;14.50;;
67503;SDS011;54351;49.108;1.502;2022-08-21T12:16:07;15.73;;;14.77;;
67503;SDS011;54351;49.108;1.502;2022-08-21T12:18:43;15.75;;;14.75;;
67503;SDS011;54351;49.108;1.502;2022-08-21T12:21:27;15.75;;;14.43;;
67503;SDS011;54351;49.108;1.502;2022-08-21T12:26:48;13.50;;;12.40;;
67503;SDS011;54351;49.108;1.502;2022-08-21T12:29:28;14.85;;;13.63;;
67503;SDS011;54351;49.108;1.502;2022-08-21T12:32:42;11.77;;;10.77;;
67503;SDS011;54351;49.108;1.502;2022-08-21T12:37:45;11.75;;;10.68;;
67503;SDS011;54351;49.108;1.502;2022-08-21T12:40:20;12.60;;;11.57;;
67503;SDS011;54351;49.108;1.502;2022-08-21T12:42:48;11.75;;;10.93;;
67503;SDS011;54351;49.108;1.502;2022-08-21T12:47:54;13.10;;;12.30;;
67503;SDS011;54351;49.108;1.502;2022-08-21T12:55:40;11.18;;;10.13;;
67503;SDS011;54351;49.108;1.502;2022-08-21T12:58:06;10.32;;;9.55;;
67503;SDS011;54351;49.108;1.502;2022-08-21T13:00:34;10.63;;;9.93;;
67503;SDS011;54351;49.108;1.502;2022-08-21T13:03:00;10.82;;;10.02;;
67503;SDS011;54351;49.108;1.502;2022-08-21T13:05:33;13.48;;;8.82;;
67503;SDS011;54351;49.108;1.502;2022-08-21T13:08:04;9.88;;;9.07;;
67503;SDS011;54351;49.108;1.502;2022-08-21T13:10:31;11.55;;;10.77;;
67503;SDS011;54351;49.108;1.502;2022-08-21T13:13:01;9.30;;;8.73;;
67503;SDS011;54351;49.108;1.502;2022-08-21T13:15:32;9.75;;;8.95;;
67503;SDS011;54351;49.108;1.502;2022-08-21T13:17:59;8.73;;;8.13;;
67503;SDS011;54351;49.108;1.502;2022-08-21T13:20:31;9.52;;;8.93;;
67503;SDS011;54351;49.108;1.502;2022-08-21T13:22:57;9.63;;;9.02;;
67503;SDS011;54351;49.108;1.502;2022-08-21T13:25:28;9.82;;;9.15;;
67503;SDS011;54351;49.108;1.502;2022-08-21T13:30:21;11.07;;;10.23;;
67503;SDS011;54351;49.108;1.502;2022-08-21T13:32:48;10.40;;;9.60;;
67503;SDS011;54351;49.108;1.502;2022-08-21T13:35:21;8.82;;;8.25;;
67503;SDS011;54351;49.108;1.502;2022-08-21T13:37:48;9.15;;;8.57;;
67503;SDS011;54351;49.108;1.502;2022-08-21T13:40:17;9.35;;;8.65;;
67503;SDS011;54351;49.108;1.502;2022-08-21T13:42:45;9.73;;;9.05;;
67503;SDS011;54351;49.108;1.502;2022-08-21T13:45:17;11.20;;;10.30;;
67503;SDS011;54351;49.108;1.502;2022-08-21T13:47:44;10.90;;;10.18;;
67503;SDS011;54351;49.108;1.502;2022-08-21T13:50:11;10.10;;;9.45;;
67503;SDS011;54351;49.108;1.502;2022-08-21T13:52:46;9.80;;;9.20;;
67503;SDS011;54351;49.108;1.502;2022-08-21T13:55:17;8.35;;;7.85;;
67503;SDS011;54351;49.108;1.502;2022-08-21T13:57:43;9.10;;;8.45;;
67503;SDS011;54351;49.108;1.502;2022-08-21T14:00:17;8.52;;;7.82;;
67503;SDS011;54351;49.108;1.502;2022-08-21T14:02:45;8.00;;;7.50;;
67503;SDS011;54351;49.108;1.502;2022-08-21T14:05:34;8.25;;;7.55;;
67503;SDS011;54351;49.108;1.502;2022-08-21T14:08:07;8.38;;;7.65;;
67503;SDS011;54351;49.108;1.502;2022-08-21T14:10:35;7.95;;;7.38;;
67503;SDS011;54351;49.108;1.502;2022-08-21T14:13:03;9.23;;;8.52;;
67503;SDS011;54351;49.108;1.502;2022-08-21T14:15:35;7.90;;;7.40;;
67503;SDS011;54351;49.108;1.502;2022-08-21T14:18:08;7.85;;;7.25;;
67503;SDS011;54351;49.108;1.502;2022-08-21T14:20:35;8.30;;;7.68;;
67503;SDS011;54351;49.108;1.502;2022-08-21T14:23:02;8.40;;;7.78;;
67503;SDS011;54351;49.108;1.502;2022-08-21T14:25:30;7.47;;;6.97;;
67503;SDS011;54351;49.108;1.502;2022-08-21T14:30:43;7.50;;;6.95;;
67503;SDS011;54351;49.108;1.502;2022-08-21T14:33:13;9.57;;;6.95;;
67503;SDS011;54351;49.108;1.502;2022-08-21T14:35:40;7.07;;;6.65;;
67503;SDS011;54351;49.108;1.502;2022-08-21T14:38:17;7.85;;;7.35;;
67503;SDS011;54351;49.108;1.502;2022-08-21T14:40:46;9.27;;;7.47;;
67503;SDS011;54351;49.108;1.502;2022-08-21T14:43:13;9.07;;;8.45;;
67503;SDS011;54351;49.108;1.502;2022-08-21T14:45:39;9.43;;;8.73;;
67503;SDS011;54351;49.108;1.502;2022-08-21T14:48:06;9.75;;;8.95;;
67503;SDS011;54351;49.108;1.502;2022-08-21T14:50:32;7.70;;;7.03;;
67503;SDS011;54351;49.108;1.502;2022-08-21T14:52:59;7.63;;;7.00;;
67503;SDS011;54351;49.108;1.502;2022-08-21T14:55:27;8.80;;;8.07;;
67503;SDS011;54351;49.108;1.502;2022-08-21T14:57:54;8.23;;;7.50;;
67503;SDS011;54351;49.108;1.502;2022-08-21T15:00:24;7.88;;;7.28;;
67503;SDS011;54351;49.108;1.502;2022-08-21T15:02:51;7.28;;;6.68;;
67503;SDS011;54351;49.108;1.502;2022-08-21T15:05:18;7.50;;;6.95;;
67503;SDS011;54351;49.108;1.502;2022-08-21T15:07:51;7.22;;;6.72;;
67503;SDS011;54351;49.108;1.502;2022-08-21T15:10:18;8.27;;;7.43;;
67503;SDS011;54351;49.108;1.502;2022-08-21T15:12:44;7.95;;;7.35;;
67503;SDS011;54351;49.108;1.502;2022-08-21T15:15:10;8.13;;;7.43;;
67503;SDS011;54351;49.108;1.502;2022-08-21T15:17:36;8.00;;;7.35;;
67503;SDS011;54351;49.108;1.502;2022-08-21T15:20:13;8.57;;;7.75;;
67503;SDS011;54351;49.108;1.502;2022-08-21T15:22:41;7.43;;;6.85;;
67503;SDS011;54351;49.108;1.502;2022-08-21T15:25:07;8.70;;;8.10;;
67503;SDS011;54351;49.108;1.502;2022-08-21T15:27:34;7.72;;;7.13;;
67503;SDS011;54351;49.108;1.502;2022-08-21T15:30:01;7.50;;;6.75;;
67503;SDS011;54351;49.108;1.502;2022-08-21T15:32:28;8.65;;;8.02;;
67503;SDS011;54351;49.108;1.502;2022-08-21T15:34:55;8.23;;;7.63;;
67503;SDS011;54351;49.108;1.502;2022-08-21T15:37:30;8.07;;;7.53;;
67503;SDS011;54351;49.108;1.502;2022-08-21T15:39:57;8.05;;;7.30;;
67503;SDS011;54351;49.108;1.502;2022-08-21T15:42:23;8.07;;;7.47;;
67503;SDS011;54351;49.108;1.502;2022-08-21T15:44:56;9.00;;;7.95;;
67503;SDS011;54351;49.108;1.502;2022-08-21T15:47:29;8.65;;;7.95;;
67503;SDS011;54351;49.108;1.502;2022-08-21T15:49:56;8.73;;;8.00;;
67503;SDS011;54351;49.108;1.502;2022-08-21T15:52:25;8.68;;;7.90;;
67503;SDS011;54351;49.108;1.502;2022-08-21T15:54:51;9.00;;;7.78;;
67503;SDS011;54351;49.108;1.502;2022-08-21T15:57:20;9.00;;;8.13;;
67503;SDS011;54351;49.108;1.502;2022-08-21T15:59:49;9.20;;;8.40;;
67503;SDS011;54351;49.108;1.502;2022-08-21T16:02:22;8.55;;;7.75;;
67503;SDS011;54351;49.108;1.502;2022-08-21T16:04:48;9.70;;;8.75;;
67503;SDS011;54351;49.108;1.502;2022-08-21T16:07:15;9.30;;;8.40;;